createdAt,value
2023-03-01T00:00:49.451Z,-6.21
2023-03-01T00:03:18.740Z,-6.34
2023-03-01T00:05:48.440Z,-6.29
2023-03-01T00:08:17.781Z,-6.18
2023-03-01T00:10:47.243Z,-6.11
2023-03-01T00:13:16.516Z,-6.29
2023-03-01T00:15:48.377Z,-6.22
2023-03-01T00:18:17.781Z,-6.28
2023-03-01T00:20:53.755Z,-6.18
2023-03-01T00:23:24.539Z,-6.17
2023-03-01T00:25:55.666Z,-6.26
2023-03-01T00:28:25.123Z,-6.40
2023-03-01T00:31:01.501Z,-6.25
2023-03-01T00:33:31.115Z,-6.25
2023-03-01T00:36:01.692Z,-6.29
2023-03-01T00:38:39.245Z,-6.47
2023-03-01T00:41:16.107Z,-6.35
2023-03-01T00:43:46.122Z,-6.39
2023-03-01T00:46:20.450Z,-6.35
2023-03-01T00:48:50.179Z,-6.47
2023-03-01T00:51:21.782Z,-6.48
2023-03-01T00:53:54.136Z,-6.49
2023-03-01T00:56:29.254Z,-6.64
2023-03-01T00:58:58.886Z,-6.58
2023-03-01T01:01:32.381Z,-6.51
2023-03-01T01:04:03.875Z,-6.65
2023-03-01T01:06:36.620Z,-6.62
2023-03-01T01:09:07.771Z,-6.53
2023-03-01T01:11:38.104Z,-6.48
2023-03-01T01:14:07.604Z,-6.54
2023-03-01T01:16:39.436Z,-6.61
2023-03-01T01:19:10.231Z,-6.54
2023-03-01T01:21:39.582Z,-6.55
2023-03-01T01:24:14.741Z,-6.54
2023-03-01T01:26:50.167Z,-6.48
2023-03-01T01:29:19.699Z,-6.54
2023-03-01T01:31:51.650Z,-6.60
2023-03-01T01:34:25.695Z,-6.82
2023-03-01T01:37:03.372Z,-6.69
2023-03-01T01:39:32.686Z,-6.60
2023-03-01T01:42:03.210Z,-6.56
2023-03-01T01:44:32.859Z,-6.48
2023-03-01T01:47:07.261Z,-6.56
2023-03-01T01:49:39.792Z,-6.56
2023-03-01T01:52:14.377Z,-6.60
2023-03-01T01:54:48.545Z,-6.70
2023-03-01T01:57:22.458Z,-6.73
2023-03-01T01:59:55.424Z,-6.86
2023-03-01T02:02:27.619Z,-6.56
2023-03-01T02:05:11.147Z,-6.46
2023-03-01T02:07:47.137Z,-6.40
2023-03-01T02:10:16.630Z,-6.21
2023-03-01T02:12:46.933Z,-6.43
2023-03-01T02:15:37.246Z,-6.36
2023-03-01T02:18:10.500Z,-6.34
2023-03-01T02:20:52.254Z,-6.42
2023-03-01T02:23:27.007Z,-6.46
2023-03-01T02:26:09.549Z,-6.57
2023-03-01T02:28:42.989Z,-6.56
2023-03-01T02:31:26.785Z,-6.83
2023-03-01T02:33:56.520Z,-6.42
2023-03-01T02:39:14.879Z,-6.64
2023-03-01T02:41:54.643Z,-6.80
2023-03-01T02:44:26.593Z,-6.80
2023-03-01T02:47:01.975Z,-6.81
2023-03-01T02:49:33.920Z,-6.91
2023-03-01T02:52:20.595Z,-6.90
2023-03-01T02:54:57.193Z,-6.86
2023-03-01T02:57:30.623Z,-6.89
2023-03-01T03:00:10.783Z,-7.04
2023-03-01T03:02:40.228Z,-6.95
2023-03-01T03:05:31.856Z,-7.00
2023-03-01T03:08:07.629Z,-7.11
2023-03-01T03:10:41.170Z,-7.09
2023-03-01T03:13:12.843Z,-7.24
2023-03-01T03:15:46.043Z,-7.11
2023-03-01T03:18:18.170Z,-7.46
2023-03-01T03:20:53.383Z,-7.30
2023-03-01T03:23:30.150Z,-7.28
2023-03-01T03:25:59.398Z,-7.22
2023-03-01T03:28:28.566Z,-7.15
2023-03-01T03:31:04.129Z,-7.20
2023-03-01T03:33:33.324Z,-7.49
2023-03-01T03:36:02.411Z,-7.28
2023-03-01T03:38:31.967Z,-7.34
2023-03-01T03:41:07.845Z,-7.41
2023-03-01T03:43:40.237Z,-7.54
2023-03-01T03:46:12.399Z,-7.50
2023-03-01T03:48:49.386Z,-7.38
2023-03-01T03:51:20.061Z,-7.32
2023-03-01T03:53:55.169Z,-7.37
2023-03-01T03:56:28.471Z,-7.43
2023-03-01T03:58:58.013Z,-7.39
2023-03-01T04:01:29.314Z,-7.40
2023-03-01T04:04:04.599Z,-7.39
2023-03-01T04:06:34.398Z,-7.43
2023-03-01T04:09:04.741Z,-7.42
2023-03-01T04:11:35.366Z,-7.50
2023-03-01T04:14:09.713Z,-7.44
2023-03-01T04:16:40.855Z,-7.35
2023-03-01T04:19:10.655Z,-7.34
2023-03-01T04:21:39.786Z,-7.35
2023-03-01T04:24:10.326Z,-7.33
2023-03-01T04:26:44.936Z,-7.37
2023-03-01T04:29:19.241Z,-7.35
2023-03-01T04:31:51.943Z,-7.22
2023-03-01T04:34:21.391Z,-7.22
2023-03-01T04:36:50.624Z,-7.26
2023-03-01T04:39:19.887Z,-7.33
2023-03-01T04:41:49.116Z,-7.25
2023-03-01T04:44:18.319Z,-7.20
2023-03-01T04:46:52.330Z,-7.22
2023-03-01T04:49:21.450Z,-7.07
2023-03-01T04:51:50.831Z,-7.10
2023-03-01T04:54:20.080Z,-7.06
2023-03-01T04:56:49.123Z,-6.95
2023-03-01T04:59:18.342Z,-6.88
2023-03-01T05:01:49.318Z,-6.86
2023-03-01T05:04:18.670Z,-6.86
2023-03-01T05:06:47.839Z,-6.85
2023-03-01T05:09:22.221Z,-6.95
2023-03-01T05:11:56.331Z,-6.89
2023-03-01T05:14:25.534Z,-6.88
2023-03-01T05:17:04.395Z,-6.89
2023-03-01T05:19:33.667Z,-6.92
2023-03-01T05:22:06.389Z,-6.88
2023-03-01T05:24:37.395Z,-6.91
2023-03-01T05:27:06.759Z,-6.93
2023-03-01T05:29:35.814Z,-6.94
2023-03-01T05:32:09.524Z,-6.82
2023-03-01T05:34:39.542Z,-6.71
2023-03-01T05:37:09.022Z,-6.50
2023-03-01T05:39:42.418Z,-6.45
2023-03-01T05:42:13.764Z,-6.15
2023-03-01T05:44:43.047Z,-5.79
2023-03-01T05:47:14.147Z,-5.55
2023-03-01T05:49:50.178Z,-5.32
2023-03-01T05:52:24.946Z,-5.29
2023-03-01T05:57:31.850Z,-5.51
2023-03-01T06:00:01.016Z,-5.31
2023-03-01T06:02:34.505Z,-5.38
2023-03-01T06:05:05.368Z,-5.19
2023-03-01T06:07:40.630Z,-5.25
2023-03-01T06:10:11.945Z,-5.13
2023-03-01T06:12:51.772Z,-5.07
2023-03-01T06:15:21.170Z,-5.09
2023-03-01T06:17:54.400Z,-5.03
2023-03-01T06:20:32.960Z,-4.78
2023-03-01T06:23:02.557Z,-4.45
2023-03-01T06:25:32.414Z,-4.42
2023-03-01T06:28:01.894Z,-4.60
2023-03-01T06:30:41.126Z,-4.75
2023-03-01T06:33:12.255Z,-4.74
2023-03-01T06:35:48.777Z,-4.81
2023-03-01T06:38:19.550Z,-4.93
2023-03-01T06:40:54.970Z,-4.96
2023-03-01T06:43:24.183Z,-4.75
2023-03-01T06:45:53.518Z,-4.35
2023-03-01T06:48:24.840Z,-4.35
2023-03-01T06:50:54.122Z,-4.25
2023-03-01T06:53:23.310Z,-4.16
2023-03-01T06:55:58.516Z,-4.24
2023-03-01T06:58:28.592Z,-4.40
2023-03-01T07:03:44.895Z,-4.41
2023-03-01T07:06:19.218Z,-4.22
2023-03-01T07:08:48.342Z,-4.16
2023-03-01T07:11:23.177Z,-4.31
2023-03-01T07:13:58.985Z,-4.26
2023-03-01T07:16:28.271Z,-4.14
2023-03-01T07:18:59.883Z,-3.91
2023-03-01T07:21:36.126Z,-3.71
2023-03-01T07:24:05.286Z,-3.70
2023-03-01T07:26:34.365Z,-3.75
2023-03-01T07:29:09.283Z,-3.64
2023-03-01T07:31:38.701Z,-3.73
2023-03-01T07:34:16.300Z,-3.50
2023-03-01T07:36:47.268Z,-3.53
2023-03-01T07:39:18.047Z,-3.27
2023-03-01T07:41:47.963Z,-3.38
2023-03-01T07:44:17.854Z,-3.75
2023-03-01T07:46:47.230Z,-3.83
2023-03-01T07:49:18.346Z,-4.07
2023-03-01T07:51:47.911Z,-4.21
2023-03-01T07:54:17.199Z,-4.10
2023-03-01T07:56:51.330Z,-4.07
2023-03-01T07:59:29.590Z,-3.99
2023-03-01T08:02:04.769Z,-3.93
2023-03-01T08:04:37.982Z,-3.99
2023-03-01T08:07:08.046Z,-4.03
2023-03-01T08:09:37.841Z,-3.83
2023-03-01T08:12:08.290Z,-3.83
2023-03-01T08:14:37.611Z,-3.90
2023-03-01T08:17:06.816Z,-4.04
2023-03-01T08:19:38.051Z,-4.00
2023-03-01T08:22:07.256Z,-3.90
2023-03-01T08:24:36.393Z,-3.81
2023-03-01T08:27:10.971Z,-3.76
2023-03-01T08:29:40.714Z,-3.66
2023-03-01T08:32:10.015Z,-3.72
2023-03-01T08:34:42.555Z,-3.70
2023-03-01T08:37:12.402Z,-3.74
2023-03-01T08:39:41.554Z,-3.72
2023-03-01T08:42:13.042Z,-3.65
2023-03-01T08:44:42.531Z,-3.76
2023-03-01T08:47:11.530Z,-3.73
2023-03-01T08:49:48.118Z,-3.75
2023-03-01T08:54:57.217Z,-3.96
2023-03-01T08:57:26.592Z,-3.90
2023-03-01T08:59:57.040Z,-3.89
2023-03-01T09:02:26.380Z,-3.87
2023-03-01T09:04:57.323Z,-3.75
2023-03-01T09:07:28.694Z,-3.75
2023-03-01T09:10:02.945Z,-3.86
2023-03-01T09:12:36.871Z,-3.96
2023-03-01T09:15:07.094Z,-4.06
2023-03-01T09:17:36.280Z,-4.09
2023-03-01T09:20:08.554Z,-3.91
2023-03-01T09:22:37.810Z,-3.93
2023-03-01T09:25:08.004Z,-3.93
2023-03-01T09:27:37.268Z,-3.93
2023-03-01T09:30:07.747Z,-3.90
2023-03-01T09:32:43.175Z,-3.93
2023-03-01T09:35:14.505Z,-3.86
2023-03-01T09:37:50.181Z,-3.60
2023-03-01T09:40:21.940Z,-3.63
2023-03-01T09:43:09.664Z,-3.66
2023-03-01T09:45:44.775Z,-3.47
2023-03-01T09:48:19.360Z,-3.33
2023-03-01T09:50:50.885Z,-3.21
2023-03-01T09:56:21.577Z,-3.12
2023-03-01T09:58:57.932Z,-3.02
2023-03-01T10:01:35.986Z,-2.79
2023-03-01T10:04:23.134Z,-2.40
2023-03-01T10:07:06.987Z,-2.44
2023-03-01T10:09:38.450Z,-2.60
2023-03-01T10:12:11.924Z,-2.63
2023-03-01T10:14:47.005Z,-2.74
2023-03-01T10:17:25.721Z,-2.75
2023-03-01T10:19:59.947Z,-2.55
2023-03-01T10:22:33.493Z,-2.53
2023-03-01T10:25:11.252Z,-2.41
2023-03-01T10:27:51.392Z,-2.33
2023-03-01T10:30:24.989Z,-2.47
2023-03-01T10:32:56.477Z,-2.36
2023-03-01T10:35:28.285Z,-2.32
2023-03-01T10:38:05.740Z,-2.31
2023-03-01T10:40:35.252Z,-2.44
2023-03-01T10:43:06.851Z,-2.47
2023-03-01T10:45:38.796Z,-2.50
2023-03-01T10:48:08.739Z,-2.31
2023-03-01T10:50:38.254Z,-2.24
2023-03-01T10:53:29.540Z,-2.20
2023-03-01T10:56:09.944Z,-2.12
2023-03-01T10:59:00.585Z,-2.14
2023-03-01T11:01:32.981Z,-1.93
2023-03-01T11:04:15.478Z,-1.99
2023-03-01T11:06:44.541Z,-1.95
2023-03-01T11:09:21.985Z,-1.90
2023-03-01T11:11:55.241Z,-1.46
2023-03-01T11:14:27.907Z,-1.20
2023-03-01T11:17:05.357Z,-1.08
2023-03-01T11:19:35.603Z,-1.14
2023-03-01T11:22:08.535Z,-1.32
2023-03-01T11:24:43.833Z,-1.45
2023-03-01T11:27:23.446Z,-1.38
2023-03-01T11:29:58.570Z,-1.55
2023-03-01T11:32:34.222Z,-1.54
2023-03-01T11:35:08.530Z,-1.58
2023-03-01T11:37:42.929Z,-1.33
2023-03-01T11:40:24.803Z,-1.66
2023-03-01T11:43:07.181Z,-2.19
2023-03-01T11:45:57.431Z,-1.83
2023-03-01T11:48:49.942Z,-1.58
2023-03-01T11:51:27.452Z,-1.22
2023-03-01T11:54:09.489Z,-1.34
2023-03-01T11:59:56.236Z,-1.76
2023-03-01T12:02:56.956Z,-1.81
2023-03-01T12:05:58.962Z,-1.83
2023-03-01T12:08:36.879Z,-1.66
2023-03-01T12:11:15.815Z,-1.59
2023-03-01T12:14:12.705Z,-1.69
2023-03-01T12:17:15.147Z,-1.71
2023-03-01T12:20:02.283Z,-1.55
2023-03-01T12:22:47.684Z,-1.44
2023-03-01T12:25:27.430Z,-1.49
2023-03-01T12:28:27.673Z,-1.53
2023-03-01T12:31:26.014Z,-1.27
2023-03-01T12:33:59.934Z,-1.24
2023-03-01T12:36:51.779Z,-1.21
2023-03-01T12:42:27.794Z,-1.59
2023-03-01T12:45:30.677Z,-1.84
2023-03-01T12:53:24.586Z,-2.53
2023-03-01T12:55:56.573Z,-2.53
2023-03-01T12:58:47.647Z,-2.18
2023-03-01T13:01:28.444Z,-2.09
2023-03-01T13:04:19.350Z,-2.32
2023-03-01T13:07:03.084Z,-2.14
2023-03-01T13:09:44.157Z,-2.14
2023-03-01T13:12:43.780Z,-2.09
2023-03-01T13:15:29.401Z,-2.22
2023-03-01T13:18:06.108Z,-2.18
2023-03-01T13:20:48.580Z,-2.20
2023-03-01T13:23:28.862Z,-2.13
2023-03-01T13:26:17.610Z,-2.25
2023-03-01T13:28:56.608Z,-2.23
2023-03-01T13:31:55.513Z,-2.21
2023-03-01T13:34:44.443Z,-2.59
2023-03-01T13:37:21.345Z,-2.36
2023-03-01T13:39:51.973Z,-2.47
2023-03-01T13:43:05.653Z,-2.53
2023-03-01T13:45:41.236Z,-2.56
2023-03-01T13:48:14.508Z,-2.60
2023-03-01T13:50:50.774Z,-2.72
2023-03-01T13:53:23.061Z,-2.82
2023-03-01T13:55:55.751Z,-2.88
2023-03-01T13:58:28.962Z,-3.14
2023-03-01T14:01:00.498Z,-3.07
2023-03-01T14:03:35.322Z,-3.34
2023-03-01T14:06:19.714Z,-3.19
2023-03-01T14:08:53.452Z,-3.31
2023-03-01T14:11:57.440Z,-3.24
2023-03-01T14:14:42.532Z,-3.33
2023-03-01T14:17:41.382Z,-3.27
2023-03-01T14:20:20.259Z,-3.34
2023-03-01T14:22:51.372Z,-3.28
2023-03-01T14:28:06.101Z,-3.35
2023-03-01T14:30:41.683Z,-3.69
2023-03-01T14:33:23.419Z,-3.45
2023-03-01T14:35:59.100Z,-3.39
2023-03-01T14:38:37.412Z,-3.53
2023-03-01T14:41:17.608Z,-3.43
2023-03-01T14:43:49.232Z,-3.47
2023-03-01T14:46:34.284Z,-3.94
2023-03-01T14:49:07.724Z,-3.60
2023-03-01T14:51:40.178Z,-3.64
2023-03-01T14:54:24.194Z,-3.73
2023-03-01T14:59:31.235Z,-3.84
2023-03-01T15:02:03.066Z,-3.69
2023-03-01T15:04:34.457Z,-3.60
2023-03-01T15:07:05.428Z,-3.95
2023-03-01T15:09:37.443Z,-3.92
2023-03-01T15:12:42.234Z,-3.63
2023-03-01T15:15:33.103Z,-3.71
2023-03-01T15:18:06.627Z,-3.81
2023-03-01T15:20:40.424Z,-3.75
2023-03-01T15:23:22.353Z,-3.93
2023-03-01T15:25:59.137Z,-4.09
2023-03-01T15:28:31.257Z,-3.73
2023-03-01T15:31:04.782Z,-3.81
2023-03-01T15:33:39.034Z,-4.06
2023-03-01T15:36:34.440Z,-3.70
2023-03-01T15:39:06.747Z,-4.15
2023-03-01T15:41:50.412Z,-3.85
2023-03-01T15:44:42.791Z,-4.12
2023-03-01T15:47:32.575Z,-3.81
2023-03-01T15:50:03.944Z,-4.13
2023-03-01T15:52:55.920Z,-5.04
2023-03-01T15:55:29.285Z,-3.86
2023-03-01T15:58:03.333Z,-3.97
2023-03-01T16:00:32.956Z,-4.01
2023-03-01T16:03:02.476Z,-4.23
2023-03-01T16:05:36.814Z,-4.01
2023-03-01T16:08:06.930Z,-3.94
2023-03-01T16:10:44.390Z,-3.95
2023-03-01T16:13:14.375Z,-3.91
2023-03-01T16:15:44.412Z,-3.99
2023-03-01T16:18:23.510Z,-3.89
2023-03-01T16:23:36.526Z,-3.91
2023-03-01T16:28:41.298Z,-3.79
2023-03-01T16:31:13.489Z,-4.00
2023-03-01T16:33:43.316Z,-4.15
2023-03-01T16:36:15.175Z,-3.86
2023-03-01T16:38:51.176Z,-3.85
2023-03-01T16:41:22.629Z,-3.94
2023-03-01T16:43:52.255Z,-3.89
2023-03-01T16:46:23.937Z,-3.89
2023-03-01T16:49:03.920Z,-3.88
2023-03-01T16:51:36.328Z,-3.97
2023-03-01T16:54:10.690Z,-3.96
2023-03-01T16:56:42.411Z,-3.88
2023-03-01T16:59:18.864Z,-3.94
2023-03-01T17:01:48.106Z,-3.80
2023-03-01T17:04:19.351Z,-3.80
2023-03-01T17:06:50.753Z,-3.74
2023-03-01T17:09:22.534Z,-3.84
2023-03-01T17:11:51.718Z,-3.80
2023-03-01T17:14:20.965Z,-3.92
2023-03-01T17:16:50.382Z,-3.93
2023-03-01T17:19:20.633Z,-3.98
2023-03-01T17:21:51.776Z,-4.03
2023-03-01T17:24:21.148Z,-3.92
2023-03-01T17:26:50.265Z,-4.07
2023-03-01T17:29:20.113Z,-3.97
2023-03-01T17:31:49.565Z,-4.04
2023-03-01T17:34:19.242Z,-4.00
2023-03-01T17:36:50.410Z,-4.03
2023-03-01T17:39:25.519Z,-4.06
2023-03-01T17:41:54.825Z,-4.08
2023-03-01T17:44:24.133Z,-3.97
2023-03-01T17:46:53.419Z,-4.02
2023-03-01T17:49:22.872Z,-4.09
2023-03-01T17:51:52.131Z,-4.03
2023-03-01T17:54:23.278Z,-4.12
2023-03-01T17:56:53.377Z,-4.21
2023-03-01T17:59:22.569Z,-3.97
2023-03-01T18:01:52.667Z,-3.90
2023-03-01T18:04:22.432Z,-3.96
2023-03-01T18:06:51.923Z,-3.93
2023-03-01T18:09:23.520Z,-3.93
2023-03-01T18:11:53.542Z,-4.02
2023-03-01T18:14:22.675Z,-4.19
2023-03-01T18:16:57.068Z,-4.17
2023-03-01T18:19:26.454Z,-4.30
2023-03-01T18:21:56.001Z,-4.19
2023-03-01T18:24:32.587Z,-4.25
2023-03-01T18:27:01.733Z,-4.21
2023-03-01T18:29:30.934Z,-4.48
2023-03-01T18:32:00.456Z,-4.11
2023-03-01T18:34:29.899Z,-4.02
2023-03-01T18:37:09.666Z,-4.29
2023-03-01T18:39:41.827Z,-4.07
2023-03-01T18:42:11.322Z,-4.12
2023-03-01T18:44:40.411Z,-4.09
2023-03-01T18:47:09.672Z,-4.17
2023-03-01T18:49:39.128Z,-4.35
2023-03-01T18:52:08.400Z,-4.11
2023-03-01T18:54:37.911Z,-4.32
2023-03-01T18:57:09.101Z,-4.22
2023-03-01T18:59:43.360Z,-4.08
2023-03-01T19:02:15.132Z,-4.17
2023-03-01T19:04:45.589Z,-4.15
2023-03-01T19:07:14.702Z,-4.23
2023-03-01T19:09:43.987Z,-4.31
2023-03-01T19:12:21.646Z,-4.15
2023-03-01T19:14:56.258Z,-4.12
2023-03-01T19:17:30.577Z,-4.18
2023-03-01T19:20:00.184Z,-4.26
2023-03-01T19:22:29.660Z,-4.25
2023-03-01T19:24:59.113Z,-4.40
2023-03-01T19:27:30.309Z,-4.31
2023-03-01T19:29:59.515Z,-4.20
2023-03-01T19:32:34.526Z,-4.18
2023-03-01T19:35:05.545Z,-4.23
2023-03-01T19:37:36.262Z,-4.38
2023-03-01T19:40:05.696Z,-4.29
2023-03-01T19:42:36.828Z,-4.34
2023-03-01T19:45:06.924Z,-4.15
2023-03-01T19:47:41.234Z,-4.12
2023-03-01T19:50:13.813Z,-4.21
2023-03-01T19:52:43.102Z,-4.24
2023-03-01T19:55:13.311Z,-4.22
2023-03-01T19:57:49.758Z,-4.35
2023-03-01T20:00:20.345Z,-4.41
2023-03-01T20:02:49.648Z,-4.29
2023-03-01T20:05:18.930Z,-4.36
2023-03-01T20:07:57.250Z,-4.35
2023-03-01T20:10:27.074Z,-4.30
2023-03-01T20:12:58.256Z,-4.63
2023-03-01T20:15:27.921Z,-4.38
2023-03-01T20:17:57.004Z,-4.31
2023-03-01T20:20:26.196Z,-4.36
2023-03-01T20:22:55.414Z,-4.35
2023-03-01T20:25:24.657Z,-4.36
2023-03-01T20:27:53.897Z,-4.32
2023-03-01T20:30:25.490Z,-4.32
2023-03-01T20:32:54.717Z,-4.28
2023-03-01T20:35:23.915Z,-4.22
2023-03-01T20:40:40.414Z,-4.17
2023-03-01T20:43:09.686Z,-4.21
2023-03-01T20:45:41.758Z,-4.17
2023-03-01T20:48:10.961Z,-4.12
2023-03-01T20:50:42.689Z,-4.10
2023-03-01T20:53:12.065Z,-4.13
2023-03-01T20:55:41.193Z,-4.15
2023-03-01T20:58:10.480Z,-4.01
2023-03-01T21:00:41.910Z,-4.02
2023-03-01T21:03:11.544Z,-4.06
2023-03-01T21:05:42.144Z,-4.13
2023-03-01T21:08:11.355Z,-4.35
2023-03-01T21:10:40.606Z,-4.21
2023-03-01T21:13:23.723Z,-4.30
2023-03-01T21:16:00.533Z,-4.30
2023-03-01T21:18:30.596Z,-4.34
2023-03-01T21:21:01.919Z,-4.41
2023-03-01T21:23:38.735Z,-4.49
2023-03-01T21:26:15.352Z,-4.49
2023-03-01T21:28:45.422Z,-4.53
2023-03-01T21:31:18.533Z,-4.51
2023-03-01T21:33:49.486Z,-4.50
2023-03-01T21:36:19.487Z,-4.45
2023-03-01T21:38:50.323Z,-4.39
2023-03-01T21:44:08.645Z,-4.34
2023-03-01T21:46:51.298Z,-4.31
2023-03-01T21:49:20.927Z,-4.33
2023-03-01T21:51:50.600Z,-4.27
2023-03-01T21:54:24.884Z,-4.34
2023-03-01T21:56:53.873Z,-4.30
2023-03-01T21:59:24.932Z,-4.21
2023-03-01T22:01:56.065Z,-4.28
2023-03-01T22:04:25.454Z,-4.35
2023-03-01T22:06:54.594Z,-4.36
2023-03-01T22:09:29.724Z,-4.29
2023-03-01T22:12:01.893Z,-4.39
2023-03-01T22:14:38.231Z,-4.26
2023-03-01T22:17:14.471Z,-4.27
2023-03-01T22:19:48.614Z,-4.39
2023-03-01T22:22:17.750Z,-4.24
2023-03-01T22:24:46.882Z,-4.34
2023-03-01T22:27:16.157Z,-4.12
2023-03-01T22:29:45.139Z,-4.06
2023-03-01T22:32:16.486Z,-4.10
2023-03-01T22:34:52.788Z,-4.07
2023-03-01T22:37:22.026Z,-4.11
2023-03-01T22:39:51.168Z,-4.13
2023-03-01T22:42:21.038Z,-4.16
2023-03-01T22:44:50.290Z,-4.04
2023-03-01T22:47:26.466Z,-3.98
2023-03-01T22:49:56.949Z,-4.02
2023-03-01T22:52:25.958Z,-4.21
2023-03-01T22:54:56.167Z,-3.93
2023-03-01T22:57:32.157Z,-3.97
2023-03-01T23:00:01.420Z,-3.96
2023-03-01T23:02:36.867Z,-3.99
2023-03-01T23:05:06.328Z,-3.98
2023-03-01T23:07:35.482Z,-3.98
2023-03-01T23:10:04.755Z,-3.88
2023-03-01T23:12:34.079Z,-3.99
2023-03-01T23:15:03.295Z,-3.76
2023-03-01T23:17:34.661Z,-3.82
2023-03-01T23:20:07.029Z,-3.94
2023-03-01T23:22:36.354Z,-3.79
2023-03-01T23:25:06.972Z,-3.79
2023-03-01T23:27:38.229Z,-3.79
2023-03-01T23:30:08.961Z,-3.76
2023-03-01T23:32:40.577Z,-3.83
2023-03-01T23:35:11.147Z,-3.73
2023-03-01T23:37:40.298Z,-4.03
2023-03-01T23:40:10.872Z,-3.83
2023-03-01T23:42:40.116Z,-3.81
2023-03-01T23:45:10.592Z,-3.83
2023-03-01T23:47:51.876Z,-3.78
2023-03-01T23:50:21.316Z,-3.76
2023-03-01T23:52:50.441Z,-3.82
2023-03-01T23:55:26.070Z,-3.76
2023-03-01T23:57:55.276Z,-3.81
